VLG331 LEAL-LXGB
Flight info
| Callsign | VLG331 |
|---|---|
| Flight time | N/A |
| Altitude | 31000 |
| Route | RESTU DCT INKAL DCT PIMOS |
| Aircraft | A320/M-SDE3FGHIRWY/LB1 |
Departure
| Time | N/A |
|---|---|
| Airport | Alicante-Elche Miguel Hernández Airport (LEAL) |
Arrival
| Time | 2026-05-01 07:30 |
|---|---|
| Airport | Gibraltar Airport (LXGB) |
| Time | Latitude | Longitude | Altitude | Speed | Heading |
|---|---|---|---|---|---|
| 2026-05-01 07:23 | 36.16658 | -4.91069 | 6954 ft | 264 kts | 262° |
| 2026-05-01 07:23 | 36.16543 | -4.95604 | 6331 ft | 265 kts | 268° |
| 2026-05-01 07:24 | 36.16542 | -4.97887 | 5990 ft | 261 kts | 268° |
| 2026-05-01 07:24 | 36.16557 | -5.00096 | 5657 ft | 252 kts | 268° |
| 2026-05-01 07:24 | 36.16573 | -5.02228 | 5335 ft | 243 kts | 268° |
| 2026-05-01 07:24 | 36.16587 | -5.04256 | 5023 ft | 234 kts | 266° |
| 2026-05-01 07:25 | 36.16590 | -5.06259 | 4697 ft | 226 kts | 268° |
| 2026-05-01 07:25 | 36.16613 | -5.08178 | 4378 ft | 227 kts | 268° |
| 2026-05-01 07:25 | 36.16581 | -5.10129 | 3989 ft | 223 kts | 263° |
| 2026-05-01 07:25 | 36.16404 | -5.12020 | 3628 ft | 219 kts | 260° |
| 2026-05-01 07:26 | 36.16205 | -5.13866 | 3253 ft | 214 kts | 261° |
| 2026-05-01 07:26 | 36.16001 | -5.15678 | 2884 ft | 210 kts | 261° |
| 2026-05-01 07:26 | 36.15796 | -5.17449 | 2567 ft | 208 kts | 264° |
| 2026-05-01 07:26 | 36.15721 | -5.19221 | 2240 ft | 207 kts | 268° |
| 2026-05-01 07:27 | 36.15680 | -5.20964 | 1919 ft | 198 kts | 268° |
| 2026-05-01 07:27 | 36.15642 | -5.22613 | 1615 ft | 183 kts | 268° |
| 2026-05-01 07:27 | 36.15598 | -5.24107 | 1432 ft | 167 kts | 266° |
| 2026-05-01 07:27 | 36.15460 | -5.25472 | 1362 ft | 152 kts | 261° |
| 2026-05-01 07:28 | 36.15336 | -5.26718 | 1269 ft | 141 kts | 268° |
| 2026-05-01 07:28 | 36.15346 | -5.27904 | 984 ft | 135 kts | 270° |
| 2026-05-01 07:28 | 36.15313 | -5.29051 | 794 ft | 134 kts | 267° |
| 2026-05-01 07:28 | 36.15277 | -5.30200 | 629 ft | 134 kts | 267° |
| 2026-05-01 07:29 | 36.15253 | -5.31347 | 497 ft | 132 kts | 268° |
| 2026-05-01 07:29 | 36.15204 | -5.32483 | 328 ft | 132 kts | 266° |
| 2026-05-01 07:29 | 36.15166 | -5.33624 | 122 ft | 133 kts | 265° |
| 2026-05-01 07:29 | 36.15126 | -5.34742 | 21 ft | 114 kts | 267° |
| 2026-05-01 07:30 | 36.15108 | -5.35346 | 23 ft | 26 kts | 268° |
| 2026-05-01 07:30 | 36.15108 | -5.35507 | 22 ft | 15 kts | 283° |
| 2026-05-01 07:30 | 36.15095 | -5.35583 | 20 ft | 6 kts | 170° |
| 2026-05-01 07:30 | 36.15088 | -5.35542 | 22 ft | 6 kts | 75° |
| 2026-05-01 07:31 | 36.15107 | -5.35433 | 23 ft | 19 kts | 86° |
| 2026-05-01 07:31 | 36.15165 | -5.34690 | 21 ft | 15 kts | 26° |
| 2026-05-01 07:32 | 36.15236 | -5.34585 | 19 ft | 7 kts | 64° |
| 2026-05-01 07:32 | 36.15277 | -5.34582 | 17 ft | 6 kts | 352° |
| 2026-05-01 07:33 | 36.15308 | -5.34584 | 17 ft | 0 kts | 356° |